createdAt,value
2022-08-03T04:07:03.153Z,99.90
2022-08-03T04:09:35.561Z,99.90
2022-08-03T04:12:07.482Z,99.90
2022-08-03T04:14:41.707Z,99.90
2022-08-03T04:17:14.745Z,99.90
2022-08-03T04:19:47.787Z,99.90
2022-08-03T04:22:25.259Z,99.90
2022-08-03T04:27:32.533Z,99.90
2022-08-03T04:30:05.141Z,99.90
2022-08-03T04:32:40.833Z,99.70
2022-08-03T04:35:14.629Z,83.00
2022-08-03T04:37:47.672Z,49.40
2022-08-03T04:40:22.781Z,21.50
2022-08-03T04:42:54.791Z,7.70
2022-08-03T04:45:26.784Z,1.00
2022-08-03T04:47:59.877Z,1.00
2022-08-03T04:50:34.673Z,1.00
2022-08-03T04:53:06.370Z,1.00
2022-08-03T04:55:38.912Z,1.00
2022-08-03T04:58:10.609Z,1.00
2022-08-03T05:00:42.337Z,1.00
2022-08-03T05:03:20.570Z,1.00
2022-08-03T05:06:09.378Z,99.90
2022-08-03T05:08:46.968Z,1.00
2022-08-03T05:11:18.951Z,1.00
2022-08-03T05:13:50.629Z,1.00
2022-08-03T05:16:22.320Z,99.90
2022-08-03T05:18:55.351Z,1.00
2022-08-03T05:21:27.057Z,1.00
2022-08-03T05:24:18.713Z,99.90
2022-08-03T05:26:50.430Z,99.90
2022-08-03T05:29:22.102Z,99.90
2022-08-03T05:31:53.793Z,95.20
2022-08-03T05:34:26.891Z,47.60
2022-08-03T05:36:58.627Z,22.40
2022-08-03T05:39:30.292Z,1.00
2022-08-03T05:42:02.068Z,99.90
2022-08-03T05:47:05.893Z,99.90
2022-08-03T05:49:38.958Z,99.90
2022-08-03T05:52:15.591Z,44.80
2022-08-03T05:57:29.259Z,99.90
2022-08-03T06:00:01.597Z,1.00
2022-08-03T06:02:33.291Z,1.00
2022-08-03T06:05:07.378Z,1.00
2022-08-03T06:07:41.559Z,1.00
2022-08-03T06:10:36.584Z,1.00
2022-08-03T06:13:04.986Z,1.00
2022-08-03T06:15:36.657Z,1.00
2022-08-03T06:20:41.737Z,1.00
2022-08-03T06:23:17.872Z,1.00
2022-08-03T06:25:50.175Z,1.00
2022-08-03T06:28:51.779Z,1.00
2022-08-03T06:31:13.525Z,1.00
2022-08-03T06:34:31.268Z,1.00
2022-08-03T06:36:38.295Z,1.00
2022-08-03T06:39:09.970Z,1.00
2022-08-03T06:41:44.785Z,1.00
2022-08-03T06:44:16.674Z,1.00
2022-08-03T06:46:48.363Z,1.00
2022-08-03T06:49:20.101Z,1.00
2022-08-03T06:52:03.376Z,1.00
2022-08-03T06:54:38.030Z,1.00
2022-08-03T06:57:09.723Z,1.00
2022-08-03T07:02:33.430Z,1.00
2022-08-03T07:05:05.949Z,1.00
2022-08-03T07:07:39.028Z,1.00
2022-08-03T07:12:52.772Z,1.00
2022-08-03T07:15:56.170Z,1.00
2022-08-03T07:21:01.797Z,1.00
2022-08-03T07:23:34.835Z,1.00
2022-08-03T07:26:06.499Z,1.00
2022-08-03T07:28:38.194Z,1.00
2022-08-03T07:33:41.955Z,1.00
2022-08-03T07:36:13.644Z,1.00
2022-08-03T07:38:46.698Z,1.00
2022-08-03T07:41:18.792Z,1.00
2022-08-03T07:43:50.482Z,1.00
2022-08-03T07:46:22.145Z,1.00
2022-08-03T07:48:58.601Z,1.00
2022-08-03T07:51:30.280Z,1.00
2022-08-03T07:54:03.538Z,1.00
2022-08-03T07:56:35.225Z,1.00
2022-08-03T07:59:06.930Z,1.00
2022-08-03T08:01:38.661Z,1.00
2022-08-03T08:04:10.380Z,1.00
2022-08-03T08:06:42.065Z,1.00
2022-08-03T08:09:15.104Z,1.00
2022-08-03T08:11:46.777Z,1.00
2022-08-03T08:14:18.452Z,1.00
2022-08-03T08:16:50.131Z,1.00
2022-08-03T08:19:21.976Z,1.00
2022-08-03T08:22:02.344Z,1.00
2022-08-03T08:24:35.985Z,1.00
2022-08-03T08:27:08.632Z,1.00
2022-08-03T08:29:52.632Z,1.00
2022-08-03T08:32:28.137Z,1.00
2022-08-03T08:34:59.838Z,1.00
2022-08-03T08:37:31.535Z,1.00
2022-08-03T08:40:05.657Z,1.00
2022-08-03T08:42:37.683Z,1.00
2022-08-03T08:45:09.788Z,1.00
2022-08-03T08:47:51.213Z,1.00
2022-08-03T08:50:27.829Z,1.00
2022-08-03T08:53:01.881Z,1.00
2022-08-03T08:55:58.077Z,1.00
2022-08-03T08:58:28.386Z,1.00
2022-08-03T09:01:00.196Z,1.00
2022-08-03T09:03:33.968Z,1.00
2022-08-03T09:06:05.858Z,1.00
2022-08-03T09:08:37.577Z,1.00
2022-08-03T09:11:12.054Z,1.00
2022-08-03T09:13:43.921Z,1.00
2022-08-03T09:16:16.606Z,1.00
2022-08-03T09:18:49.285Z,1.00
2022-08-03T09:21:37.792Z,1.00
2022-08-03T09:24:20.651Z,1.00
2022-08-03T09:27:02.625Z,1.00
2022-08-03T09:29:34.309Z,1.00
2022-08-03T09:32:06.055Z,1.00
2022-08-03T09:34:37.789Z,1.00
2022-08-03T09:37:13.206Z,1.00
2022-08-03T09:39:45.170Z,1.00
2022-08-03T09:42:18.902Z,1.00
2022-08-03T09:44:55.755Z,1.00
2022-08-03T09:47:28.511Z,1.00
2022-08-03T09:50:02.082Z,1.00
2022-08-03T09:52:39.181Z,1.00
2022-08-03T09:56:33.008Z,1.00
2022-08-03T09:58:14.244Z,1.00
2022-08-03T10:00:53.158Z,1.00
2022-08-03T10:03:25.879Z,1.00
2022-08-03T10:05:59.728Z,1.00
2022-08-03T10:08:31.884Z,1.00
2022-08-03T10:11:03.590Z,1.00
2022-08-03T10:13:36.685Z,1.00
2022-08-03T10:16:21.520Z,1.00
2022-08-03T10:18:56.826Z,1.00
2022-08-03T10:21:29.697Z,1.00
2022-08-03T10:24:03.131Z,1.00
2022-08-03T10:26:35.532Z,1.00
2022-08-03T10:29:14.943Z,1.00
2022-08-03T10:31:54.460Z,1.00
2022-08-03T10:34:35.382Z,1.00
2022-08-03T10:37:10.039Z,1.00
2022-08-03T10:39:42.691Z,1.00
2022-08-03T10:42:14.547Z,1.00
2022-08-03T10:44:47.993Z,1.00
2022-08-03T10:47:20.372Z,1.00
2022-08-03T10:49:52.123Z,1.00
2022-08-03T10:52:31.723Z,1.00
2022-08-03T10:55:30.128Z,1.00
2022-08-03T10:58:02.647Z,1.00
2022-08-03T11:00:49.711Z,1.00
2022-08-03T11:03:21.512Z,1.00
2022-08-03T11:05:53.422Z,1.00
2022-08-03T11:08:27.240Z,1.00
2022-08-03T11:11:00.423Z,1.00
2022-08-03T11:16:21.963Z,1.00
2022-08-03T11:18:57.818Z,1.00
2022-08-03T11:21:57.682Z,1.00
2022-08-03T11:24:57.618Z,1.00
2022-08-03T11:27:30.572Z,1.00
2022-08-03T11:30:04.963Z,1.00
2022-08-03T11:32:58.949Z,1.00
2022-08-03T11:35:31.063Z,1.00
2022-08-03T11:38:10.053Z,1.00
2022-08-03T11:40:45.582Z,1.00
2022-08-03T11:43:45.467Z,1.00
2022-08-03T11:46:28.520Z,1.00
2022-08-03T11:49:09.743Z,1.00
2022-08-03T11:51:42.336Z,1.00
2022-08-03T11:54:14.007Z,1.00
2022-08-03T11:56:46.352Z,1.00
2022-08-03T11:59:21.811Z,1.00
2022-08-03T12:02:05.626Z,1.00
2022-08-03T12:04:50.870Z,1.00
2022-08-03T12:08:02.205Z,1.00
2022-08-03T12:10:14.694Z,1.00
2022-08-03T12:12:46.885Z,1.00
2022-08-03T12:15:18.640Z,1.00
2022-08-03T12:17:52.742Z,1.00
2022-08-03T12:20:31.502Z,1.00
2022-08-03T12:23:07.337Z,1.00
2022-08-03T12:25:40.104Z,1.00
2022-08-03T12:28:36.164Z,1.00
2022-08-03T12:31:06.368Z,1.00
2022-08-03T12:33:59.006Z,1.00
2022-08-03T12:36:33.614Z,1.00
2022-08-03T12:39:06.315Z,1.00
2022-08-03T12:41:38.748Z,1.00
2022-08-03T12:44:10.438Z,1.00
2022-08-03T12:46:47.393Z,1.00
2022-08-03T12:49:19.839Z,1.00
2022-08-03T12:52:01.708Z,1.00
2022-08-03T12:54:37.118Z,1.00
2022-08-03T12:57:09.577Z,1.00
2022-08-03T12:59:41.943Z,1.00
2022-08-03T13:02:23.620Z,1.00
2022-08-03T13:04:55.663Z,1.00
2022-08-03T13:07:28.699Z,1.00
2022-08-03T13:10:03.716Z,1.00
2022-08-03T13:12:46.448Z,1.00
2022-08-03T13:15:18.225Z,1.00
2022-08-03T13:17:49.941Z,1.00
2022-08-03T13:20:21.693Z,1.00
2022-08-03T13:23:01.098Z,1.00
2022-08-03T13:25:32.892Z,1.00
2022-08-03T13:28:05.905Z,1.00
2022-08-03T13:30:38.610Z,1.00
2022-08-03T13:33:10.293Z,1.00
2022-08-03T13:35:41.987Z,1.00
2022-08-03T13:38:15.342Z,1.00
2022-08-03T13:40:49.469Z,1.00
2022-08-03T13:43:21.799Z,1.00
2022-08-03T13:45:57.614Z,1.00
2022-08-03T13:48:37.041Z,1.00
2022-08-03T13:51:11.870Z,1.00
2022-08-03T13:53:55.869Z,1.00
2022-08-03T13:56:27.569Z,1.00
2022-08-03T13:58:59.309Z,1.00
2022-08-03T14:01:54.000Z,1.00
2022-08-03T14:04:22.732Z,1.00
2022-08-03T14:06:54.457Z,1.00
2022-08-03T14:09:27.495Z,1.00
2022-08-03T14:12:06.946Z,1.00
2022-08-03T14:14:40.186Z,1.00
2022-08-03T14:17:11.940Z,1.00
2022-08-03T14:19:53.096Z,1.00
2022-08-03T14:22:25.668Z,1.00
2022-08-03T14:24:58.730Z,1.00
2022-08-03T14:27:30.441Z,1.00
2022-08-03T14:30:02.221Z,1.00
2022-08-03T14:32:33.928Z,1.00
2022-08-03T14:35:06.497Z,1.00
2022-08-03T14:37:38.181Z,1.00
2022-08-03T14:40:11.529Z,1.00
2022-08-03T14:42:43.247Z,1.00
2022-08-03T14:45:20.489Z,1.00
2022-08-03T14:50:31.595Z,1.00
2022-08-03T14:50:50.148Z,1.00
2022-08-03T14:53:22.670Z,1.00
2022-08-03T14:55:55.709Z,1.00
2022-08-03T14:58:27.396Z,1.00
2022-08-03T15:00:59.076Z,1.00
2022-08-03T15:03:30.788Z,1.00
2022-08-03T15:06:02.479Z,1.00
2022-08-03T15:08:34.182Z,1.00
2022-08-03T15:11:07.216Z,1.00
2022-08-03T15:13:38.925Z,1.00
2022-08-03T15:16:10.596Z,1.00
2022-08-03T15:18:42.290Z,1.00
2022-08-03T15:21:20.835Z,1.00
2022-08-03T15:24:06.123Z,1.00
2022-08-03T15:26:41.637Z,1.00
2022-08-03T15:30:08.809Z,1.00
2022-08-03T15:32:09.246Z,1.00
2022-08-03T15:34:41.353Z,1.00
2022-08-03T15:37:22.235Z,1.00
2022-08-03T15:39:59.073Z,1.00
2022-08-03T15:42:33.616Z,1.00
2022-08-03T15:45:06.309Z,1.00
2022-08-03T15:47:38.013Z,1.00
2022-08-03T15:50:10.007Z,1.00
2022-08-03T15:52:41.744Z,1.00
2022-08-03T15:55:15.985Z,1.00
2022-08-03T15:59:03.521Z,1.00
2022-08-03T16:00:42.321Z,1.00
2022-08-03T16:03:14.004Z,1.00
2022-08-03T16:05:45.685Z,1.00
2022-08-03T16:08:17.378Z,1.00
2022-08-03T16:10:49.068Z,1.00
2022-08-03T16:13:23.485Z,1.00
2022-08-03T16:18:47.212Z,1.00
2022-08-03T16:21:20.004Z,1.00
2022-08-03T16:23:53.539Z,1.00
2022-08-03T16:26:25.647Z,1.00
2022-08-03T16:29:00.925Z,1.00
2022-08-03T16:31:32.662Z,1.00
2022-08-03T16:34:04.363Z,1.00
2022-08-03T16:36:36.830Z,1.00
2022-08-03T16:39:08.584Z,1.00
2022-08-03T16:41:54.393Z,1.00
2022-08-03T16:44:33.433Z,1.00
2022-08-03T16:47:05.279Z,1.00
2022-08-03T16:49:54.162Z,1.00
2022-08-03T16:52:27.291Z,1.00
2022-08-03T16:54:59.153Z,1.00
2022-08-03T16:57:59.464Z,1.00
2022-08-03T17:00:34.310Z,1.00
2022-08-03T17:03:16.368Z,1.00
2022-08-03T17:05:52.253Z,1.00
2022-08-03T17:08:26.521Z,1.00
2022-08-03T17:10:58.762Z,1.00
2022-08-03T17:13:39.717Z,1.00
2022-08-03T17:16:15.283Z,1.00
2022-08-03T17:18:50.621Z,1.00
2022-08-03T17:21:25.035Z,1.00
2022-08-03T17:24:03.721Z,1.00
2022-08-03T17:26:39.703Z,1.00
2022-08-03T17:29:17.656Z,1.00
2022-08-03T17:31:51.264Z,1.00
2022-08-03T17:34:26.244Z,1.00
2022-08-03T17:37:06.230Z,1.00
2022-08-03T17:42:32.033Z,1.00
2022-08-03T17:45:06.698Z,1.00
2022-08-03T17:47:41.814Z,1.00
2022-08-03T17:50:25.002Z,1.00
2022-08-03T17:53:07.084Z,1.00
2022-08-03T17:55:56.941Z,1.00
2022-08-03T17:58:38.130Z,1.00
2022-08-03T18:02:00.809Z,1.00
2022-08-03T18:04:10.702Z,1.00
2022-08-03T18:06:55.763Z,1.00
2022-08-03T18:10:03.352Z,1.00
2022-08-03T18:12:24.959Z,1.00
2022-08-03T18:15:01.118Z,1.00
2022-08-03T18:17:55.521Z,1.00
2022-08-03T18:20:32.314Z,1.00
2022-08-03T18:23:10.905Z,1.00
2022-08-03T18:25:59.053Z,1.00
2022-08-03T18:28:30.942Z,1.00
2022-08-03T18:31:05.724Z,1.00
2022-08-03T18:34:17.133Z,1.00
2022-08-03T18:36:32.839Z,1.00
2022-08-03T18:39:06.191Z,1.00
2022-08-03T18:41:37.952Z,1.00
2022-08-03T18:44:37.998Z,1.00
2022-08-03T18:47:23.062Z,1.00
2022-08-03T18:50:00.567Z,1.00
2022-08-03T18:52:37.469Z,1.00
2022-08-03T18:55:20.760Z,1.00
2022-08-03T18:58:01.452Z,1.00
2022-08-03T19:00:53.959Z,1.00
2022-08-03T19:03:25.760Z,1.00
2022-08-03T19:06:19.899Z,1.00
2022-08-03T19:08:55.833Z,1.00
2022-08-03T19:12:13.899Z,1.00
2022-08-03T19:14:28.655Z,1.00
2022-08-03T19:17:04.558Z,1.00
2022-08-03T19:19:43.394Z,1.00
2022-08-03T19:22:16.492Z,1.00
2022-08-03T19:24:49.534Z,1.00
2022-08-03T19:27:21.260Z,1.00
2022-08-03T19:30:02.033Z,1.00
2022-08-03T19:32:35.704Z,1.00
2022-08-03T19:35:13.329Z,1.00
2022-08-03T19:37:45.240Z,1.00
2022-08-03T19:40:19.765Z,1.00
2022-08-03T19:42:53.656Z,1.00
2022-08-03T19:46:04.523Z,1.00
2022-08-03T19:48:20.096Z,1.00
2022-08-03T19:50:53.897Z,1.00
2022-08-03T19:53:35.208Z,1.00
2022-08-03T19:56:23.212Z,1.00
2022-08-03T19:58:55.333Z,1.00
2022-08-03T20:01:28.245Z,1.00
2022-08-03T20:03:59.978Z,1.00
2022-08-03T20:09:04.136Z,1.00
2022-08-03T20:11:43.674Z,1.00
2022-08-03T20:14:20.782Z,1.00
2022-08-03T20:16:58.421Z,1.00
2022-08-03T20:19:32.761Z,1.00
2022-08-03T20:22:07.083Z,1.00
2022-08-03T20:24:52.333Z,1.00
2022-08-03T20:27:30.302Z,1.00
2022-08-03T20:30:06.986Z,1.00
2022-08-03T20:32:39.752Z,1.00
2022-08-03T20:35:11.795Z,1.00
2022-08-03T20:37:43.533Z,1.00
2022-08-03T20:40:16.411Z,1.00
2022-08-03T20:42:50.807Z,1.00
2022-08-03T20:46:01.206Z,1.00
2022-08-03T20:48:14.223Z,1.00
2022-08-03T20:50:48.202Z,1.00
2022-08-03T20:53:57.254Z,1.00
2022-08-03T20:56:11.550Z,1.00
2022-08-03T20:58:50.530Z,1.00
2022-08-03T21:01:27.926Z,1.00
2022-08-03T21:04:09.581Z,1.00
2022-08-03T21:06:45.487Z,1.00
2022-08-03T21:09:18.876Z,1.00
2022-08-03T21:11:51.251Z,1.00
2022-08-03T21:14:27.636Z,1.00
2022-08-03T21:16:59.422Z,1.00
2022-08-03T21:19:31.688Z,1.00
2022-08-03T21:22:03.571Z,1.00
2022-08-03T21:24:36.641Z,1.00
2022-08-03T21:27:08.443Z,1.00
2022-08-03T21:29:53.072Z,1.00
2022-08-03T21:32:32.378Z,1.00
2022-08-03T21:35:06.085Z,1.00
2022-08-03T21:37:38.348Z,17.50
2022-08-03T21:40:11.023Z,16.90
2022-08-03T21:42:43.742Z,23.70
2022-08-03T21:45:17.881Z,43.10
2022-08-03T21:47:49.773Z,42.20
2022-08-03T21:50:21.581Z,62.10
2022-08-03T21:52:53.357Z,71.90
2022-08-03T21:55:25.313Z,99.20
2022-08-03T21:57:58.144Z,99.90
